Dades meteomassalio
Diari Summary for Marc 8, 2018 Units:  Both    English   Metric
« Previous Day
Next Day »
Diari Semanal Mensual Anual Personalitzat
  Maxima: Minima: Mijana:
Temperatura: TemperatureC °F /  -17.8 °C 2.2 °F /  -16.6 °C 8 °F /  -13.3 °C
Rosada: DewpointC °F /  -17.8 °C -0.2 °F /  -17.9 °C 3.3 °F /  -15.9 °C
Humitat: Humidity % 53 % 73 %
Velocitat del vent: WindSpeedKMH mph /  0 km/h - 1.2 mph /  1.9 km/h
Racha vent: WindSpeedGustKMH mph /  0 km/h - -
Vent:- - South
Pressio: PressurehPa in /  0 hPa 1010.4 in /  34212.1 hPa -
Pluja: 0.0 in /  0 mm    
Historical Graphs
 
 
Tabular Data for Marc 8, 2018
Time Temperature Dew Point Pressure Wind Wind Speed Wind Gust Humidity Rainfall Rate (Hourly) solar Conditions
TemperatureC °F /  -17.8 °C DewpointC °F /  -17.8 °C PressurehPa in /  0 hPa Calm     Humidity % HourlyPrecipMM in /  0 mm SolarRadiationWatts/m^2 W/m2 Conditions
00:02 2.8 °F /  -16.2 °C 0.2 °F /  -17.7 °C 1013.8 in /  34327.3 hPa Calm     83 % 0.0 in /  0 mm 0.0 W/m2 CLR
00:07 2.8 °F /  -16.2 °C 0.2 °F /  -17.7 °C 1013.4 in /  34313.7 hPa Calm     83 % 0.0 in /  0 mm 0.0 W/m2 CLR
00:12 2.8 °F /  -16.2 °C 0.2 °F /  -17.7 °C 1013.8 in /  34327.3 hPa Calm     83 % 0.0 in /  0 mm 0.0 W/m2 CLR
00:17 2.8 °F /  -16.2 °C 0.2 °F /  -17.7 °C 1013.4 in /  34313.7 hPa Calm     83 % 0.0 in /  0 mm 0.0 W/m2 CLR
00:23 2.8 °F /  -16.2 °C 0.2 °F /  -17.7 °C 1013.4 in /  34313.7 hPa Calm     83 % 0.0 in /  0 mm 0.0 W/m2 CLR
00:28 2.8 °F /  -16.2 °C 0.2 °F /  -17.7 °C 1013.4 in /  34313.7 hPa Calm     83 % 0.0 in /  0 mm 0.0 W/m2 CLR
00:33 2.8 °F /  -16.2 °C 0.3 °F /  -17.6 °C 1013.4 in /  34313.7 hPa Calm     84 % 0.0 in /  0 mm 0.0 W/m2 CLR
00:38 2.8 °F /  -16.2 °C 0.3 °F /  -17.6 °C 1013.1 in /  34303.6 hPa Calm     84 % 0.0 in /  0 mm 0.0 W/m2 CLR
00:43 2.8 °F /  -16.2 °C 0.3 °F /  -17.6 °C 1013.1 in /  34303.6 hPa Calm     84 % 0.0 in /  0 mm 0.0 W/m2 CLR
00:48 2.2 °F /  -16.6 °C -0.2 °F /  -17.9 °C 1013.1 in /  34303.6 hPa Calm     84 % 0.0 in /  0 mm 0.0 W/m2 CLR
00:53 2.2 °F /  -16.6 °C -0.2 °F /  -17.9 °C 1013.1 in /  34303.6 hPa Calm     84 % 0.0 in /  0 mm 0.0 W/m2 CLR
00:58 2.2 °F /  -16.6 °C -0.1 °F /  -17.8 °C 1013.1 in /  34303.6 hPa Calm     85 % 0.0 in /  0 mm 0.0 W/m2 CLR
01:03 2.2 °F /  -16.6 °C -0.1 °F /  -17.8 °C 1012.8 in /  34293.4 hPa Calm     85 % 0.0 in /  0 mm 0.0 W/m2 CLR
01:08 2.2 °F /  -16.6 °C -0.1 °F /  -17.8 °C 1012.8 in /  34293.4 hPa Calm     85 % 0.0 in /  0 mm 0.0 W/m2 CLR
01:13 2.2 °F /  -16.6 °C -0.1 °F /  -17.8 °C 1012.8 in /  34293.4 hPa Calm     85 % 0.0 in /  0 mm 0.0 W/m2 CLR
01:18 2.2 °F /  -16.6 °C 0.1 °F /  -17.7 °C 1012.8 in /  34293.4 hPa Calm     86 % 0.0 in /  0 mm 0.0 W/m2 CLR
01:23 2.2 °F /  -16.6 °C 0.1 °F /  -17.7 °C 1012.8 in /  34293.4 hPa Calm     86 % 0.0 in /  0 mm 0.0 W/m2 CLR
01:28 2.8 °F /  -16.2 °C 0.7 °F /  -17.4 °C 1012.8 in /  34293.4 hPa Calm     86 % 0.0 in /  0 mm 0.0 W/m2 CLR
01:33 2.8 °F /  -16.2 °C 0.5 °F /  -17.5 °C 1012.4 in /  34279.9 hPa Calm     85 % 0.0 in /  0 mm 0.0 W/m2 CLR
01:38 2.8 °F /  -16.2 °C 0.5 °F /  -17.5 °C 1012.4 in /  34279.9 hPa Calm     85 % 0.0 in /  0 mm 0.0 W/m2 CLR
01:43 2.8 °F /  -16.2 °C 0.5 °F /  -17.5 °C 1012.4 in /  34279.9 hPa Calm     85 % 0.0 in /  0 mm 0.0 W/m2 CLR
01:48 2.8 °F /  -16.2 °C 0.5 °F /  -17.5 °C 1012.4 in /  34279.9 hPa Calm     85 % 0.0 in /  0 mm 0.0 W/m2 CLR
01:53 2.8 °F /  -16.2 °C 0.5 °F /  -17.5 °C 1012.4 in /  34279.9 hPa Calm     85 % 0.0 in /  0 mm 0.0 W/m2 CLR
01:58 2.8 °F /  -16.2 °C 0.5 °F /  -17.5 °C 1012.4 in /  34279.9 hPa Calm     85 % 0.0 in /  0 mm 0.0 W/m2 CLR
02:03 2.8 °F /  -16.2 °C 0.5 °F /  -17.5 °C 1012.1 in /  34269.7 hPa Calm     85 % 0.0 in /  0 mm 0.0 W/m2 CLR
02:08 2.8 °F /  -16.2 °C 0.5 °F /  -17.5 °C 1012.4 in /  34279.9 hPa Calm     85 % 0.0 in /  0 mm 0.0 W/m2 CLR
02:13 2.8 °F /  -16.2 °C 0.7 °F /  -17.4 °C 1012.4 in /  34279.9 hPa Calm     86 % 0.0 in /  0 mm 0.0 W/m2 CLR
02:18 2.8 °F /  -16.2 °C 0.7 °F /  -17.4 °C 1012.1 in /  34269.7 hPa Calm     86 % 0.0 in /  0 mm 0.0 W/m2 CLR
02:23 2.8 °F /  -16.2 °C 0.7 °F /  -17.4 °C 1012.1 in /  34269.7 hPa Calm     86 % 0.0 in /  0 mm 0.0 W/m2 CLR
02:28 3.3 °F /  -15.9 °C 1.2 °F /  -17.1 °C 1012.1 in /  34269.7 hPa Calm     86 % 0.0 in /  0 mm 0.0 W/m2 CLR
02:33 3.3 °F /  -15.9 °C 1.1 °F /  -17.2 °C 1012.1 in /  34269.7 hPa Calm     85 % 0.0 in /  0 mm 0.0 W/m2 CLR
02:38 3.3 °F /  -15.9 °C 1.1 °F /  -17.2 °C 1011.7 in /  34256.2 hPa Calm     85 % 0.0 in /  0 mm 0.0 W/m2 CLR
02:43 3.3 °F /  -15.9 °C 1.1 °F /  -17.2 °C 1011.7 in /  34256.2 hPa Calm     85 % 0.0 in /  0 mm 0.0 W/m2 CLR
02:48 3.3 °F /  -15.9 °C 1.1 °F /  -17.2 °C 1011.7 in /  34256.2 hPa Calm     85 % 0.0 in /  0 mm 0.0 W/m2 CLR
02:53 3.3 °F /  -15.9 °C 1.1 °F /  -17.2 °C 1011.7 in /  34256.2 hPa Calm     85 % 0.0 in /  0 mm 0.0 W/m2 CLR
02:58 3.3 °F /  -15.9 °C 1.1 °F /  -17.2 °C 1011.4 in /  34246 hPa Calm     85 % 0.0 in /  0 mm 0.0 W/m2 CLR
03:03 3.3 °F /  -15.9 °C 1.1 °F /  -17.2 °C 1011.4 in /  34246 hPa Calm     85 % 0.0 in /  0 mm 0.0 W/m2 CLR
03:09 3.3 °F /  -15.9 °C 1.1 °F /  -17.2 °C 1011.4 in /  34246 hPa Calm     85 % 0.0 in /  0 mm 0.0 W/m2 CLR
03:14 3.3 °F /  -15.9 °C 1.1 °F /  -17.2 °C 1011.4 in /  34246 hPa Calm     85 % 0.0 in /  0 mm 0.0 W/m2 CLR
03:19 3.3 °F /  -15.9 °C 1.1 °F /  -17.2 °C 1011.1 in /  34235.8 hPa Calm     85 % 0.0 in /  0 mm 0.0 W/m2 CLR
03:24 3.3 °F /  -15.9 °C 1.1 °F /  -17.2 °C 1011.1 in /  34235.8 hPa Calm     85 % 0.0 in /  0 mm 0.0 W/m2 CLR
03:29 3.3 °F /  -15.9 °C 1.2 °F /  -17.1 °C 1011.1 in /  34235.8 hPa Calm     86 % 0.0 in /  0 mm 0.0 W/m2 CLR
03:34 3.3 °F /  -15.9 °C 1.2 °F /  -17.1 °C 1011.1 in /  34235.8 hPa Calm     86 % 0.0 in /  0 mm 0.0 W/m2 CLR
03:39 3.3 °F /  -15.9 °C 1.2 °F /  -17.1 °C 1011.1 in /  34235.8 hPa Calm     86 % 0.0 in /  0 mm 0.0 W/m2 CLR
03:44 3.3 °F /  -15.9 °C 1.2 °F /  -17.1 °C 1010.7 in /  34222.3 hPa Calm     86 % 0.0 in /  0 mm 0.0 W/m2 CLR
03:49 3.3 °F /  -15.9 °C 1.2 °F /  -17.1 °C 1010.7 in /  34222.3 hPa Calm     86 % 0.0 in /  0 mm 0.0 W/m2 CLR
03:54 3.3 °F /  -15.9 °C 1.2 °F /  -17.1 °C 1010.7 in /  34222.3 hPa Calm     86 % 0.0 in /  0 mm 0.0 W/m2 CLR
03:59 3.3 °F /  -15.9 °C 1.2 °F /  -17.1 °C 1010.7 in /  34222.3 hPa Calm     86 % 0.0 in /  0 mm 0.0 W/m2 CLR
04:04 3.3 °F /  -15.9 °C 1.2 °F /  -17.1 °C 1010.7 in /  34222.3 hPa Calm     86 % 0.0 in /  0 mm 0.0 W/m2 CLR
04:09 3.3 °F /  -15.9 °C 1.2 °F /  -17.1 °C 1010.7 in /  34222.3 hPa Calm     86 % 0.0 in /  0 mm 0.0 W/m2 CLR
04:14 3.3 °F /  -15.9 °C 1.4 °F /  -17 °C 1010.7 in /  34222.3 hPa Calm     87 % 0.0 in /  0 mm 0.0 W/m2 CLR
04:19 3.3 °F /  -15.9 °C 1.4 °F /  -17 °C 1010.7 in /  34222.3 hPa Calm     87 % 0.0 in /  0 mm 0.0 W/m2 CLR
04:24 3.3 °F /  -15.9 °C 1.4 °F /  -17 °C 1010.7 in /  34222.3 hPa Calm     87 % 0.0 in /  0 mm 0.0 W/m2 CLR
04:29 3.3 °F /  -15.9 °C 1.4 °F /  -17 °C 1010.7 in /  34222.3 hPa Calm     87 % 0.0 in /  0 mm 0.0 W/m2 CLR
04:34 3.3 °F /  -15.9 °C 1.2 °F /  -17.1 °C 1010.7 in /  34222.3 hPa Calm     86 % 0.0 in /  0 mm 0.0 W/m2 CLR
04:39 3.3 °F /  -15.9 °C 1.2 °F /  -17.1 °C 1010.7 in /  34222.3 hPa Calm     86 % 0.0 in /  0 mm 0.0 W/m2 CLR
04:44 3.9 °F /  -15.6 °C 1.8 °F /  -16.8 °C 1010.7 in /  34222.3 hPa Calm     86 % 0.0 in /  0 mm 0.0 W/m2 CLR
04:49 3.9 °F /  -15.6 °C 1.8 °F /  -16.8 °C 1010.7 in /  34222.3 hPa Calm     86 % 0.0 in /  0 mm 0.0 W/m2 CLR
04:54 3.9 °F /  -15.6 °C 1.8 °F /  -16.8 °C 1010.7 in /  34222.3 hPa Calm     86 % 0.0 in /  0 mm 0.0 W/m2 CLR
04:59 3.9 °F /  -15.6 °C 1.9 °F /  -16.7 °C 1010.7 in /  34222.3 hPa Calm     87 % 0.0 in /  0 mm 0.0 W/m2 CLR
05:04 3.9 °F /  -15.6 °C 1.9 °F /  -16.7 °C 1010.7 in /  34222.3 hPa Calm     87 % 0.0 in /  0 mm 0.0 W/m2 CLR
05:09 3.9 °F /  -15.6 °C 1.8 °F /  -16.8 °C 1010.4 in /  34212.1 hPa Calm     86 % 0.0 in /  0 mm 0.0 W/m2 CLR
05:14 3.9 °F /  -15.6 °C 1.8 °F /  -16.8 °C 1010.7 in /  34222.3 hPa Calm     86 % 0.0 in /  0 mm 0.0 W/m2 CLR
05:19 3.9 °F /  -15.6 °C 1.8 °F /  -16.8 °C 1010.7 in /  34222.3 hPa Calm     86 % 0.0 in /  0 mm 0.0 W/m2 CLR
05:24 3.9 °F /  -15.6 °C 1.8 °F /  -16.8 °C 1010.7 in /  34222.3 hPa Calm     86 % 0.0 in /  0 mm 0.0 W/m2 CLR
05:25 3.9 °F /  -15.6 °C 1.8 °F /  -16.8 °C 1010.7 in /  34222.3 hPa Calm     86 % 0.0 in /  0 mm 0.0 W/m2 CLR
05:30 3.9 °F /  -15.6 °C 1.8 °F /  -16.8 °C 1010.7 in /  34222.3 hPa Calm     86 % 0.0 in /  0 mm 0.0 W/m2 CLR
05:35 3.9 °F /  -15.6 °C 1.8 °F /  -16.8 °C 1010.7 in /  34222.3 hPa Calm     86 % 0.0 in /  0 mm 0.0 W/m2 CLR
05:40 3.9 °F /  -15.6 °C 1.8 °F /  -16.8 °C 1010.7 in /  34222.3 hPa Calm     86 % 0.0 in /  0 mm 0.0 W/m2 CLR
05:45 3.9 °F /  -15.6 °C 1.8 °F /  -16.8 °C 1010.7 in /  34222.3 hPa Calm     86 % 0.0 in /  0 mm 0.0 W/m2 CLR
05:50 3.9 °F /  -15.6 °C 1.8 °F /  -16.8 °C 1010.7 in /  34222.3 hPa Calm     86 % 0.0 in /  0 mm 0.0 W/m2 CLR
05:55 3.9 °F /  -15.6 °C 1.8 °F /  -16.8 °C 1010.7 in /  34222.3 hPa Calm     86 % 0.0 in /  0 mm 0.0 W/m2 CLR
06:00 3.9 °F /  -15.6 °C 1.8 °F /  -16.8 °C 1010.7 in /  34222.3 hPa Calm     86 % 0.0 in /  0 mm 0.0 W/m2 CLR
06:05 3.9 °F /  -15.6 °C 1.8 °F /  -16.8 °C 1010.7 in /  34222.3 hPa Calm     86 % 0.0 in /  0 mm 0.0 W/m2 CLR
06:10 3.9 °F /  -15.6 °C 1.8 °F /  -16.8 °C 1010.7 in /  34222.3 hPa Calm     86 % 0.0 in /  0 mm 0.0 W/m2 CLR
06:15 3.9 °F /  -15.6 °C 1.8 °F /  -16.8 °C 1010.7 in /  34222.3 hPa Calm     86 % 0.0 in /  0 mm 0.0 W/m2 CLR
06:20 3.9 °F /  -15.6 °C 1.8 °F /  -16.8 °C 1011.1 in /  34235.8 hPa Calm     86 % 0.0 in /  0 mm 0.0 W/m2 CLR
06:25 3.9 °F /  -15.6 °C 1.8 °F /  -16.8 °C 1011.1 in /  34235.8 hPa Calm     86 % 0.0 in /  0 mm 0.0 W/m2 CLR
06:30 4.4 °F /  -15.3 °C 2.3 °F /  -16.5 °C 1011.1 in /  34235.8 hPa Calm     86 % 0.0 in /  0 mm 0.0 W/m2 CLR
06:35 4.4 °F /  -15.3 °C 2.3 °F /  -16.5 °C 1011.1 in /  34235.8 hPa Calm     86 % 0.0 in /  0 mm 0.0 W/m2 CLR
06:40 4.4 °F /  -15.3 °C 2.3 °F /  -16.5 °C 1011.1 in /  34235.8 hPa Calm     86 % 0.0 in /  0 mm 0.0 W/m2 CLR
06:45 4.4 °F /  -15.3 °C 2.3 °F /  -16.5 °C 1011.1 in /  34235.8 hPa Calm     86 % 0.0 in /  0 mm 0.0 W/m2 CLR
06:50 4.4 °F /  -15.3 °C 2.3 °F /  -16.5 °C 1011.1 in /  34235.8 hPa Calm     86 % 0.0 in /  0 mm 0.0 W/m2 CLR
06:55 4.4 °F /  -15.3 °C 2.3 °F /  -16.5 °C 1011.1 in /  34235.8 hPa Calm     86 % 0.0 in /  0 mm 0.0 W/m2 CLR
07:00 4.4 °F /  -15.3 °C 2.3 °F /  -16.5 °C 1011.4 in /  34246 hPa Calm     86 % 0.0 in /  0 mm 0.0 W/m2 CLR
07:05 4.4 °F /  -15.3 °C 2.3 °F /  -16.5 °C 1011.4 in /  34246 hPa Calm     86 % 0.0 in /  0 mm 0.0 W/m2 CLR
07:10 4.4 °F /  -15.3 °C 2.3 °F /  -16.5 °C 1011.4 in /  34246 hPa Calm     86 % 0.0 in /  0 mm 0.0 W/m2 CLR
07:15 4.4 °F /  -15.3 °C 2.3 °F /  -16.5 °C 1011.4 in /  34246 hPa Calm     86 % 0.0 in /  0 mm 0.0 W/m2 OVC
07:20 4.4 °F /  -15.3 °C 2.3 °F /  -16.5 °C 1011.7 in /  34256.2 hPa Calm     86 % 0.0 in /  0 mm 0.0 W/m2 OVC
07:25 4.4 °F /  -15.3 °C 2.3 °F /  -16.5 °C 1011.7 in /  34256.2 hPa Calm     86 % 0.0 in /  0 mm 0.0 W/m2 OVC
07:30 4.4 °F /  -15.3 °C 2.3 °F /  -16.5 °C 1011.7 in /  34256.2 hPa Calm     86 % 0.0 in /  0 mm 9.0 W/m2 BKN
07:35 4.4 °F /  -15.3 °C 2.3 °F /  -16.5 °C 1012.1 in /  34269.7 hPa Calm     86 % 0.0 in /  0 mm 30.0 W/m2 BKN
07:40 4.4 °F /  -15.3 °C 2.3 °F /  -16.5 °C 1012.1 in /  34269.7 hPa Calm     86 % 0.0 in /  0 mm 28.0 W/m2 BKN
07:45 5.0 °F /  -15 °C 2.8 °F /  -16.2 °C 1012.1 in /  34269.7 hPa Calm     86 % 0.0 in /  0 mm 23.0 W/m2 BKN
07:50 5.0 °F /  -15 °C 2.7 °F /  -16.3 °C 1012.1 in /  34269.7 hPa Calm     85 % 0.0 in /  0 mm 25.0 W/m2 BKN
07:55 5.0 °F /  -15 °C 2.5 °F /  -16.4 °C 1012.1 in /  34269.7 hPa Calm     84 % 0.0 in /  0 mm 42.0 W/m2 BKN
08:00 5.0 °F /  -15 °C 2.5 °F /  -16.4 °C 1012.4 in /  34279.9 hPa Calm     84 % 0.0 in /  0 mm 44.0 W/m2 BKN
08:05 5.6 °F /  -14.7 °C 2.9 °F /  -16.2 °C 1012.4 in /  34279.9 hPa Calm     83 % 0.0 in /  0 mm 35.0 W/m2 BKN
08:10 5.6 °F /  -14.7 °C 2.9 °F /  -16.2 °C 1012.4 in /  34279.9 hPa Calm     83 % 0.0 in /  0 mm 47.0 W/m2 BKN
08:15 5.6 °F /  -14.7 °C 2.7 °F /  -16.3 °C 1012.1 in /  34269.7 hPa Calm     82 % 0.0 in /  0 mm 74.0 W/m2 FEW
08:20 5.6 °F /  -14.7 °C 2.4 °F /  -16.4 °C 1012.4 in /  34279.9 hPa Calm     80 % 0.0 in /  0 mm 81.0 W/m2 FEW
08:25 6.1 °F /  -14.4 °C 2.7 °F /  -16.3 °C 1012.4 in /  34279.9 hPa Calm     79 % 0.0 in /  0 mm 95.0 W/m2 FEW
08:30 6.1 °F /  -14.4 °C 2.7 °F /  -16.3 °C 1012.1 in /  34269.7 hPa Calm     79 % 0.0 in /  0 mm 120.0 W/m2 CLR
08:35 6.1 °F /  -14.4 °C 2.6 °F /  -16.3 °C 1012.4 in /  34279.9 hPa Calm     78 % 0.0 in /  0 mm 167.0 W/m2 CLR
08:40 6.7 °F /  -14.1 °C 2.9 °F /  -16.2 °C 1012.4 in /  34279.9 hPa Calm     77 % 0.0 in /  0 mm 137.0 W/m2 CLR
08:45 7.2 °F /  -13.8 °C 3.4 °F /  -15.9 °C 1012.4 in /  34279.9 hPa Calm     77 % 0.0 in /  0 mm 107.0 W/m2 CLR
08:50 7.2 °F /  -13.8 °C 3.1 °F /  -16.1 °C 1012.4 in /  34279.9 hPa Calm     75 % 0.0 in /  0 mm 100.0 W/m2 CLR
08:55 7.8 °F /  -13.4 °C 3.4 °F /  -15.9 °C 1012.4 in /  34279.9 hPa Calm     74 % 0.0 in /  0 mm 98.0 W/m2 CLR
09:00 7.8 °F /  -13.4 °C 3.2 °F /  -16 °C 1012.4 in /  34279.9 hPa Calm     73 % 0.0 in /  0 mm 137.0 W/m2 CLR
09:05 7.8 °F /  -13.4 °C 2.8 °F /  -16.2 °C 1012.4 in /  34279.9 hPa Calm     71 % 0.0 in /  0 mm 146.0 W/m2 CLR
09:10 8.3 °F /  -13.2 °C 3.4 °F /  -15.9 °C 1012.4 in /  34279.9 hPa Calm     71 % 0.0 in /  0 mm 172.0 W/m2 CLR
09:15 8.3 °F /  -13.2 °C 3.6 °F /  -15.8 °C 1012.4 in /  34279.9 hPa Calm     72 % 0.0 in /  0 mm 144.0 W/m2 CLR
09:20 8.9 °F /  -12.8 °C 3.9 °F /  -15.6 °C 1012.4 in /  34279.9 hPa Calm     71 % 0.0 in /  0 mm 137.0 W/m2 CLR
09:25 8.9 °F /  -12.8 °C 3.7 °F /  -15.7 °C 1012.8 in /  34293.4 hPa Calm     70 % 0.0 in /  0 mm 176.0 W/m2 CLR
09:30 8.9 °F /  -12.8 °C 3.7 °F /  -15.7 °C 1012.8 in /  34293.4 hPa Calm     70 % 0.0 in /  0 mm 163.0 W/m2 CLR
09:35 8.9 °F /  -12.8 °C 3.7 °F /  -15.7 °C 1012.8 in /  34293.4 hPa Calm     70 % 0.0 in /  0 mm 135.0 W/m2 CLR
09:40 8.9 °F /  -12.8 °C 3.5 °F /  -15.8 °C 1012.8 in /  34293.4 hPa Calm     69 % 0.0 in /  0 mm 121.0 W/m2 CLR
09:45 8.9 °F /  -12.8 °C 3.3 °F /  -15.9 °C 1012.8 in /  34293.4 hPa Calm     68 % 0.0 in /  0 mm 114.0 W/m2 CLR
09:50 9.4 °F /  -12.6 °C 3.8 °F /  -15.7 °C 1012.8 in /  34293.4 hPa Calm     68 % 0.0 in /  0 mm 130.0 W/m2 CLR
09:55 9.4 °F /  -12.6 °C 3.6 °F /  -15.8 °C 1012.8 in /  34293.4 hPa Calm     67 % 0.0 in /  0 mm 111.0 W/m2 CLR
10:00 9.4 °F /  -12.6 °C 3.6 °F /  -15.8 °C 1012.8 in /  34293.4 hPa Calm     67 % 0.0 in /  0 mm 120.0 W/m2 CLR
10:05 9.4 °F /  -12.6 °C 3.8 °F /  -15.7 °C 1012.8 in /  34293.4 hPa Calm     68 % 0.0 in /  0 mm 125.0 W/m2 CLR
10:10 9.4 °F /  -12.6 °C 3.4 °F /  -15.9 °C 1012.8 in /  34293.4 hPa Calm     66 % 0.0 in /  0 mm 151.0 W/m2 CLR
10:15 10.0 °F /  -12.2 °C 4.2 °F /  -15.4 °C 1013.1 in /  34303.6 hPa Calm     67 % 0.0 in /  0 mm 148.0 W/m2 CLR
10:20 10.0 °F /  -12.2 °C 4.2 °F /  -15.4 °C 1012.8 in /  34293.4 hPa Calm     67 % 0.0 in /  0 mm 144.0 W/m2 CLR
10:26 10.0 °F /  -12.2 °C 3.9 °F /  -15.6 °C 1012.8 in /  34293.4 hPa Calm     66 % 0.0 in /  0 mm 144.0 W/m2 CLR
10:31 10.6 °F /  -11.9 °C 4.4 °F /  -15.3 °C 1012.8 in /  34293.4 hPa Calm     66 % 0.0 in /  0 mm 132.0 W/m2 CLR
10:36 10.0 °F /  -12.2 °C 3.7 °F /  -15.7 °C 1012.8 in /  34293.4 hPa Calm     65 % 0.0 in /  0 mm 169.0 W/m2 CLR
10:41 10.0 °F /  -12.2 °C 3.7 °F /  -15.7 °C 1012.8 in /  34293.4 hPa Calm     65 % 0.0 in /  0 mm 160.0 W/m2 CLR
10:46 10.0 °F /  -12.2 °C 3.7 °F /  -15.7 °C 1013.1 in /  34303.6 hPa Calm     65 % 0.0 in /  0 mm 179.0 W/m2 CLR
10:51 10.6 °F /  -11.9 °C 4.0 °F /  -15.6 °C 1012.8 in /  34293.4 hPa Calm     64 % 0.0 in /  0 mm 185.0 W/m2 CLR
10:56 10.6 °F /  -11.9 °C 4.0 °F /  -15.6 °C 1012.8 in /  34293.4 hPa Calm     64 % 0.0 in /  0 mm 185.0 W/m2 CLR
11:01 10.6 °F /  -11.9 °C 4.2 °F /  -15.4 °C 1013.1 in /  34303.6 hPa Calm     65 % 0.0 in /  0 mm 193.0 W/m2 CLR
11:06 10.6 °F /  -11.9 °C 4.2 °F /  -15.4 °C 1013.1 in /  34303.6 hPa Calm     65 % 0.0 in /  0 mm 251.0 W/m2 CLR
11:11 10.6 °F /  -11.9 °C 4.2 °F /  -15.4 °C 1013.1 in /  34303.6 hPa Calm     65 % 0.0 in /  0 mm 334.0 W/m2 CLR
11:16 11.1 °F /  -11.6 °C 4.8 °F /  -15.1 °C 1013.1 in /  34303.6 hPa Calm     65 % 0.0 in /  0 mm 329.0 W/m2 CLR
11:21 11.1 °F /  -11.6 °C 4.3 °F /  -15.4 °C 1013.1 in /  34303.6 hPa Calm     63 % 0.0 in /  0 mm 330.0 W/m2 CLR
11:26 11.1 °F /  -11.6 °C 4.6 °F /  -15.2 °C 1012.8 in /  34293.4 hPa Calm     64 % 0.0 in /  0 mm 329.0 W/m2 CLR
11:31 11.1 °F /  -11.6 °C 4.3 °F /  -15.4 °C 1012.8 in /  34293.4 hPa Calm     63 % 0.0 in /  0 mm 320.0 W/m2 CLR
11:36 11.1 °F /  -11.6 °C 4.3 °F /  -15.4 °C 1012.8 in /  34293.4 hPa Calm     63 % 0.0 in /  0 mm 357.0 W/m2 CLR
11:41 11.1 °F /  -11.6 °C 3.9 °F /  -15.6 °C 1012.8 in /  34293.4 hPa Calm     61 % 0.0 in /  0 mm 306.0 W/m2 CLR
11:46 11.7 °F /  -11.3 °C 4.4 °F /  -15.3 °C 1012.8 in /  34293.4 hPa Calm     61 % 0.0 in /  0 mm 315.0 W/m2 CLR
11:51 11.7 °F /  -11.3 °C 4.4 °F /  -15.3 °C 1012.8 in /  34293.4 hPa Calm     61 % 0.0 in /  0 mm 369.0 W/m2 CLR
11:56 11.7 °F /  -11.3 °C 4.6 °F /  -15.2 °C 1012.8 in /  34293.4 hPa Calm     62 % 0.0 in /  0 mm 396.0 W/m2 CLR
12:01 11.7 °F /  -11.3 °C 4.6 °F /  -15.2 °C 1012.8 in /  34293.4 hPa Calm     62 % 0.0 in /  0 mm 369.0 W/m2 CLR
12:06 12.2 °F /  -11 °C 5.6 °F /  -14.7 °C 1012.8 in /  34293.4 hPa Calm     64 % 0.0 in /  0 mm 390.0 W/m2 CLR
12:11 11.7 °F /  -11.3 °C 4.6 °F /  -15.2 °C 1012.8 in /  34293.4 hPa Calm     62 % 0.0 in /  0 mm 371.0 W/m2 CLR
12:16 11.7 °F /  -11.3 °C 4.4 °F /  -15.3 °C 1012.8 in /  34293.4 hPa NNW 1.9 mph /  3.1 km/h 1.9 mph /  3.1 km/h 61 % 0.0 in /  0 mm 295.0 W/m2 CLR
12:21 11.7 °F /  -11.3 °C 4.4 °F /  -15.3 °C 1012.8 in /  34293.4 hPa Calm     61 % 0.0 in /  0 mm 369.0 W/m2 CLR
12:26 12.2 °F /  -11 °C 5.2 °F /  -14.9 °C 1012.8 in /  34293.4 hPa Calm     62 % 0.0 in /  0 mm 322.0 W/m2 CLR
12:31 12.2 °F /  -11 °C 4.7 °F /  -15.2 °C 1012.8 in /  34293.4 hPa Calm     60 % 0.0 in /  0 mm 425.0 W/m2 CLR
12:36 12.8 °F /  -10.7 °C 5.4 °F /  -14.8 °C 1012.8 in /  34293.4 hPa Calm     61 % 0.0 in /  0 mm 520.0 W/m2 CLR
12:41 12.8 °F /  -10.7 °C 5.7 °F /  -14.6 °C 1012.8 in /  34293.4 hPa Calm     62 % 0.0 in /  0 mm 478.0 W/m2 CLR
12:46 13.3 °F /  -10.4 °C 5.7 °F /  -14.6 °C 1012.8 in /  34293.4 hPa Calm     60 % 0.0 in /  0 mm 473.0 W/m2 CLR
12:51 13.3 °F /  -10.4 °C 5.7 °F /  -14.6 °C 1012.8 in /  34293.4 hPa Calm     60 % 0.0 in /  0 mm 504.0 W/m2 CLR
12:56 13.3 °F /  -10.4 °C 5.9 °F /  -14.5 °C 1012.8 in /  34293.4 hPa Calm     61 % 0.0 in /  0 mm 439.0 W/m2 CLR
13:01 13.3 °F /  -10.4 °C 5.5 °F /  -14.7 °C 1012.8 in /  34293.4 hPa Calm     59 % 0.0 in /  0 mm 485.0 W/m2 CLR
13:06 13.3 °F /  -10.4 °C 5.7 °F /  -14.6 °C 1012.8 in /  34293.4 hPa Calm     60 % 0.0 in /  0 mm 455.0 W/m2 CLR
13:11 13.3 °F /  -10.4 °C 5.5 °F /  -14.7 °C 1012.4 in /  34279.9 hPa Calm     59 % 0.0 in /  0 mm 717.0 W/m2 CLR
13:16 13.3 °F /  -10.4 °C 5.7 °F /  -14.6 °C 1012.4 in /  34279.9 hPa Calm     60 % 0.0 in /  0 mm 793.0 W/m2 CLR
13:21 13.9 °F /  -10.1 °C 6.0 °F /  -14.4 °C 1012.4 in /  34279.9 hPa Calm     59 % 0.0 in /  0 mm 814.0 W/m2 CLR
13:26 13.9 °F /  -10.1 °C 6.2 °F /  -14.3 °C 1012.1 in /  34269.7 hPa Calm     60 % 0.0 in /  0 mm 828.0 W/m2 CLR
13:31 13.9 °F /  -10.1 °C 5.5 °F /  -14.7 °C 1012.1 in /  34269.7 hPa North 11.3 mph /  18.2 km/h 11.3 mph /  18.2 km/h 57 % 0.0 in /  0 mm 489.0 W/m2 CLR
13:36 13.9 °F /  -10.1 °C 5.8 °F /  -14.6 °C 1012.1 in /  34269.7 hPa NNE 1.9 mph /  3.1 km/h 1.9 mph /  3.1 km/h 58 % 0.0 in /  0 mm 306.0 W/m2 CLR
13:41 13.3 °F /  -10.4 °C 5.0 °F /  -15 °C 1012.1 in /  34269.7 hPa Calm     57 % 0.0 in /  0 mm 339.0 W/m2 CLR
13:46 13.3 °F /  -10.4 °C 5.2 °F /  -14.9 °C 1012.1 in /  34269.7 hPa Calm     58 % 0.0 in /  0 mm 399.0 W/m2 CLR
13:51 13.3 °F /  -10.4 °C 5.5 °F /  -14.7 °C 1012.1 in /  34269.7 hPa Calm     59 % 0.0 in /  0 mm 512.0 W/m2 CLR
13:56 13.9 °F /  -10.1 °C 5.5 °F /  -14.7 °C 1012.1 in /  34269.7 hPa Calm     57 % 0.0 in /  0 mm 564.0 W/m2 CLR
14:01 13.9 °F /  -10.1 °C 6.0 °F /  -14.4 °C 1012.1 in /  34269.7 hPa Calm     59 % 0.0 in /  0 mm 988.0 W/m2 CLR
14:06 14.4 °F /  -9.8 °C 6.3 °F /  -14.3 °C 1012.1 in /  34269.7 hPa NNW 1.6 mph /  2.6 km/h 1.6 mph /  2.6 km/h 58 % 0.0 in /  0 mm 529.0 W/m2 CLR
14:11 14.4 °F /  -9.8 °C 5.8 °F /  -14.6 °C 1012.1 in /  34269.7 hPa NNW 3.7 mph /  6 km/h 3.7 mph /  6 km/h 56 % 0.0 in /  0 mm 418.0 W/m2 CLR
14:16 14.4 °F /  -9.8 °C 6.0 °F /  -14.4 °C 1011.7 in /  34256.2 hPa Calm     57 % 0.0 in /  0 mm 584.0 W/m2 CLR
14:21 14.4 °F /  -9.8 °C 6.5 °F /  -14.2 °C 1011.7 in /  34256.2 hPa North 14.8 mph /  23.8 km/h 14.8 mph /  23.8 km/h 59 % 0.0 in /  0 mm 1007.0 W/m2 CLR
14:26 15.0 °F /  -9.4 °C 6.3 °F /  -14.3 °C 1012.1 in /  34269.7 hPa Calm     56 % 0.0 in /  0 mm 369.0 W/m2 CLR
14:31 15.0 °F /  -9.4 °C 6.3 °F /  -14.3 °C 1011.7 in /  34256.2 hPa Calm     56 % 0.0 in /  0 mm 348.0 W/m2 CLR
14:36 14.4 °F /  -9.8 °C 6.5 °F /  -14.2 °C 1011.7 in /  34256.2 hPa NNW 11.1 mph /  17.9 km/h 11.1 mph /  17.9 km/h 59 % 0.0 in /  0 mm 949.0 W/m2 CLR
14:41 15.0 °F /  -9.4 °C 5.8 °F /  -14.6 °C 1011.7 in /  34256.2 hPa Calm     54 % 0.0 in /  0 mm 954.0 W/m2 CLR
14:46 15.6 °F /  -9.1 °C 6.6 °F /  -14.1 °C 1011.7 in /  34256.2 hPa North 17.7 mph /  28.5 km/h 17.7 mph /  28.5 km/h 55 % 0.0 in /  0 mm 411.0 W/m2 CLR
14:51 15.6 °F /  -9.1 °C 6.6 °F /  -14.1 °C 1011.7 in /  34256.2 hPa NNW 14.8 mph /  23.8 km/h 14.8 mph /  23.8 km/h 55 % 0.0 in /  0 mm 272.0 W/m2 CLR
14:56 15.0 °F /  -9.4 °C 6.3 °F /  -14.3 °C 1011.7 in /  34256.2 hPa NW 13.0 mph /  20.9 km/h 13.0 mph /  20.9 km/h 56 % 0.0 in /  0 mm 248.0 W/m2 CLR
15:01 14.4 °F /  -9.8 °C 6.0 °F /  -14.4 °C 1011.7 in /  34256.2 hPa NNE 13.0 mph /  20.9 km/h 13.0 mph /  20.9 km/h 57 % 0.0 in /  0 mm 279.0 W/m2 CLR
15:06 14.4 °F /  -9.8 °C 5.8 °F /  -14.6 °C 1012.1 in /  34269.7 hPa Calm     56 % 0.0 in /  0 mm 257.0 W/m2 CLR
15:11 14.4 °F /  -9.8 °C 6.3 °F /  -14.3 °C 1011.7 in /  34256.2 hPa North 5.6 mph /  9 km/h   58 % 0.0 in /  0 mm 290.0 W/m2 CLR
15:16 14.4 °F /  -9.8 °C 6.3 °F /  -14.3 °C 1011.7 in /  34256.2 hPa NNW 14.8 mph /  23.8 km/h 14.8 mph /  23.8 km/h 58 % 0.0 in /  0 mm 348.0 W/m2 CLR
15:21 14.4 °F /  -9.8 °C 6.0 °F /  -14.4 °C 1011.7 in /  34256.2 hPa NE 16.7 mph /  26.9 km/h 16.7 mph /  26.9 km/h 57 % 0.0 in /  0 mm 329.0 W/m2 CLR
15:26 14.4 °F /  -9.8 °C 5.8 °F /  -14.6 °C 1011.7 in /  34256.2 hPa NNE 16.7 mph /  26.9 km/h 16.7 mph /  26.9 km/h 56 % 0.0 in /  0 mm 316.0 W/m2 CLR
15:31 14.4 °F /  -9.8 °C 6.3 °F /  -14.3 °C 1011.7 in /  34256.2 hPa NE 17.7 mph /  28.5 km/h 17.7 mph /  28.5 km/h 58 % 0.0 in /  0 mm 329.0 W/m2 CLR
15:36 14.4 °F /  -9.8 °C 6.0 °F /  -14.4 °C 1011.7 in /  34256.2 hPa NE 18.5 mph /  29.8 km/h 18.5 mph /  29.8 km/h 57 % 0.0 in /  0 mm 336.0 W/m2 CLR
15:41 14.4 °F /  -9.8 °C 5.8 °F /  -14.6 °C 1011.7 in /  34256.2 hPa NE 16.7 mph /  26.9 km/h 16.7 mph /  26.9 km/h 56 % 0.0 in /  0 mm 285.0 W/m2 CLR
15:46 14.4 °F /  -9.8 °C 6.3 °F /  -14.3 °C 1011.7 in /  34256.2 hPa North 12.9 mph /  20.8 km/h 12.9 mph /  20.8 km/h 58 % 0.0 in /  0 mm 315.0 W/m2 CLR
15:51 14.4 °F /  -9.8 °C 6.3 °F /  -14.3 °C 1011.7 in /  34256.2 hPa Calm     58 % 0.0 in /  0 mm 392.0 W/m2 CLR
15:56 14.4 °F /  -9.8 °C 6.0 °F /  -14.4 °C 1011.7 in /  34256.2 hPa NNE 14.8 mph /  23.8 km/h 14.8 mph /  23.8 km/h 57 % 0.0 in /  0 mm 731.0 W/m2 CLR
16:01 15.6 °F /  -9.1 °C 7.1 °F /  -13.8 °C 1011.7 in /  34256.2 hPa North 18.5 mph /  29.8 km/h 18.5 mph /  29.8 km/h 57 % 0.0 in /  0 mm 146.0 W/m2 CLR
16:06 15.6 °F /  -9.1 °C 7.1 °F /  -13.8 °C 1011.7 in /  34256.2 hPa Calm     57 % 0.0 in /  0 mm 179.0 W/m2 CLR
16:11 15.0 °F /  -9.4 °C 6.6 °F /  -14.1 °C 1012.1 in /  34269.7 hPa Calm   0.5 mph /  0.8 km/h 57 % 0.0 in /  0 mm 123.0 W/m2 CLR
16:16 14.4 °F /  -9.8 °C 6.0 °F /  -14.4 °C 1012.1 in /  34269.7 hPa NNE 14.8 mph /  23.8 km/h 14.8 mph /  23.8 km/h 57 % 0.0 in /  0 mm 471.0 W/m2 CLR
16:21 14.4 °F /  -9.8 °C 6.0 °F /  -14.4 °C 1012.1 in /  34269.7 hPa NE 14.8 mph /  23.8 km/h 14.8 mph /  23.8 km/h 57 % 0.0 in /  0 mm 492.0 W/m2 CLR
16:27 15.0 °F /  -9.4 °C 6.6 °F /  -14.1 °C 1011.7 in /  34256.2 hPa NNW 16.7 mph /  26.9 km/h 16.7 mph /  26.9 km/h 57 % 0.0 in /  0 mm 439.0 W/m2 CLR
16:32 15.0 °F /  -9.4 °C 6.0 °F /  -14.4 °C 1012.1 in /  34269.7 hPa North 11.1 mph /  17.9 km/h 11.1 mph /  17.9 km/h 55 % 0.0 in /  0 mm 448.0 W/m2 CLR
16:37 15.6 °F /  -9.1 °C 6.8 °F /  -14 °C 1012.1 in /  34269.7 hPa Calm     56 % 0.0 in /  0 mm 441.0 W/m2 CLR
16:42 15.6 °F /  -9.1 °C 6.6 °F /  -14.1 °C 1012.1 in /  34269.7 hPa Calm     55 % 0.0 in /  0 mm 408.0 W/m2 CLR
16:47 15.6 °F /  -9.1 °C 6.6 °F /  -14.1 °C 1012.1 in /  34269.7 hPa Calm     55 % 0.0 in /  0 mm 360.0 W/m2 CLR
16:52 15.0 °F /  -9.4 °C 5.5 °F /  -14.7 °C 1011.7 in /  34256.2 hPa Calm     53 % 0.0 in /  0 mm 343.0 W/m2 CLR
16:57 15.0 °F /  -9.4 °C 5.5 °F /  -14.7 °C 1011.7 in /  34256.2 hPa NNW 14.8 mph /  23.8 km/h 14.8 mph /  23.8 km/h 53 % 0.0 in /  0 mm 330.0 W/m2 CLR
17:02 15.0 °F /  -9.4 °C 5.8 °F /  -14.6 °C 1011.7 in /  34256.2 hPa Calm     54 % 0.0 in /  0 mm 318.0 W/m2 CLR
17:07 15.6 °F /  -9.1 °C 6.3 °F /  -14.3 °C 1011.7 in /  34256.2 hPa NNW 14.8 mph /  23.8 km/h 14.8 mph /  23.8 km/h 54 % 0.0 in /  0 mm 297.0 W/m2 CLR
17:12 15.0 °F /  -9.4 °C 5.8 °F /  -14.6 °C 1011.7 in /  34256.2 hPa Calm     54 % 0.0 in /  0 mm 278.0 W/m2 CLR
17:17 15.0 °F /  -9.4 °C 5.8 °F /  -14.6 °C 1012.1 in /  34269.7 hPa Calm     54 % 0.0 in /  0 mm 265.0 W/m2 CLR
17:18 15.0 °F /  -9.4 °C 6.3 °F /  -14.3 °C 1012.1 in /  34269.7 hPa Calm     56 % 0.0 in /  0 mm 265.0 W/m2 CLR
17:23 15.0 °F /  -9.4 °C 6.0 °F /  -14.4 °C 1012.1 in /  34269.7 hPa Calm     55 % 0.0 in /  0 mm 243.0 W/m2 CLR
17:28 14.4 °F /  -9.8 °C 5.5 °F /  -14.7 °C 1012.1 in /  34269.7 hPa NNE 1.9 mph /  3.1 km/h 1.9 mph /  3.1 km/h 55 % 0.0 in /  0 mm 218.0 W/m2 CLR
17:33 14.4 °F /  -9.8 °C 5.2 °F /  -14.9 °C 1012.1 in /  34269.7 hPa Calm     54 % 0.0 in /  0 mm 207.0 W/m2 CLR
17:38 14.4 °F /  -9.8 °C 5.8 °F /  -14.6 °C 1012.1 in /  34269.7 hPa Calm     56 % 0.0 in /  0 mm 190.0 W/m2 CLR
17:43 14.4 °F /  -9.8 °C 5.8 °F /  -14.6 °C 1012.1 in /  34269.7 hPa NNW 1.9 mph /  3.1 km/h   56 % 0.0 in /  0 mm 169.0 W/m2 CLR
17:48 14.4 °F /  -9.8 °C 5.2 °F /  -14.9 °C 1012.1 in /  34269.7 hPa Calm     54 % 0.0 in /  0 mm 149.0 W/m2 CLR
17:53 14.4 °F /  -9.8 °C 5.8 °F /  -14.6 °C 1011.7 in /  34256.2 hPa Calm     56 % 0.0 in /  0 mm 134.0 W/m2 CLR
17:58 14.4 °F /  -9.8 °C 5.5 °F /  -14.7 °C 1012.1 in /  34269.7 hPa North 3.7 mph /  6 km/h 3.7 mph /  6 km/h 55 % 0.0 in /  0 mm 116.0 W/m2 CLR
18:03 13.9 °F /  -10.1 °C 5.0 °F /  -15 °C 1012.1 in /  34269.7 hPa Calm     55 % 0.0 in /  0 mm 104.0 W/m2 CLR
18:08 13.9 °F /  -10.1 °C 5.0 °F /  -15 °C 1012.1 in /  34269.7 hPa Calm     55 % 0.0 in /  0 mm 76.0 W/m2 FEW
18:13 13.9 °F /  -10.1 °C 5.2 °F /  -14.9 °C 1012.1 in /  34269.7 hPa Calm     56 % 0.0 in /  0 mm 60.0 W/m2 SCT
18:18 13.9 °F /  -10.1 °C 5.2 °F /  -14.9 °C 1012.1 in /  34269.7 hPa Calm     56 % 0.0 in /  0 mm 51.0 W/m2 SCT
18:23 13.3 °F /  -10.4 °C 5.0 °F /  -15 °C 1012.1 in /  34269.7 hPa Calm     57 % 0.0 in /  0 mm 39.0 W/m2 BKN
18:28 13.3 °F /  -10.4 °C 5.0 °F /  -15 °C 1012.4 in /  34279.9 hPa Calm     57 % 0.0 in /  0 mm 28.0 W/m2 BKN
18:33 13.3 °F /  -10.4 °C 5.0 °F /  -15 °C 1012.4 in /  34279.9 hPa Calm     57 % 0.0 in /  0 mm 18.0 W/m2 BKN
18:38 12.8 °F /  -10.7 °C 4.7 °F /  -15.2 °C 1012.4 in /  34279.9 hPa Calm     58 % 0.0 in /  0 mm 12.0 W/m2 BKN
18:43 12.2 °F /  -11 °C 4.4 °F /  -15.3 °C 1012.4 in /  34279.9 hPa Calm     59 % 0.0 in /  0 mm 9.0 W/m2 BKN
18:48 11.7 °F /  -11.3 °C 4.2 °F /  -15.4 °C 1012.8 in /  34293.4 hPa Calm     60 % 0.0 in /  0 mm 7.0 W/m2 BKN
18:53 11.1 °F /  -11.6 °C 3.9 °F /  -15.6 °C 1012.8 in /  34293.4 hPa Calm     61 % 0.0 in /  0 mm 5.0 W/m2 OVC
18:58 11.1 °F /  -11.6 °C 4.1 °F /  -15.5 °C 1012.8 in /  34293.4 hPa Calm     62 % 0.0 in /  0 mm 0.0 W/m2 OVC
19:03 10.6 °F /  -11.9 °C 3.8 °F /  -15.7 °C 1012.8 in /  34293.4 hPa Calm     63 % 0.0 in /  0 mm 0.0 W/m2 CLR
19:08 10.0 °F /  -12.2 °C 3.5 °F /  -15.8 °C 1012.8 in /  34293.4 hPa Calm     64 % 0.0 in /  0 mm 0.0 W/m2 CLR
19:13 9.4 °F /  -12.6 °C 2.9 °F /  -16.2 °C 1012.8 in /  34293.4 hPa Calm     64 % 0.0 in /  0 mm 0.0 W/m2 CLR
19:18 9.4 °F /  -12.6 °C 3.2 °F /  -16 °C 1012.8 in /  34293.4 hPa Calm     65 % 0.0 in /  0 mm 0.0 W/m2 CLR
19:23 8.9 °F /  -12.8 °C 2.7 °F /  -16.3 °C 1012.8 in /  34293.4 hPa Calm     65 % 0.0 in /  0 mm 0.0 W/m2 CLR
19:28 8.9 °F /  -12.8 °C 2.9 °F /  -16.2 °C 1013.1 in /  34303.6 hPa Calm     66 % 0.0 in /  0 mm 0.0 W/m2 CLR
19:33 8.9 °F /  -12.8 °C 2.9 °F /  -16.2 °C 1013.1 in /  34303.6 hPa Calm     66 % 0.0 in /  0 mm 0.0 W/m2 CLR
19:38 8.3 °F /  -13.2 °C 2.8 °F /  -16.2 °C 1013.1 in /  34303.6 hPa Calm     68 % 0.0 in /  0 mm 0.0 W/m2 CLR
19:43 8.9 °F /  -12.8 °C 3.3 °F /  -15.9 °C 1013.1 in /  34303.6 hPa Calm     68 % 0.0 in /  0 mm 0.0 W/m2 CLR
19:48 8.9 °F /  -12.8 °C 3.7 °F /  -15.7 °C 1013.4 in /  34313.7 hPa Calm     70 % 0.0 in /  0 mm 0.0 W/m2 CLR
19:53 8.3 °F /  -13.2 °C 3.4 °F /  -15.9 °C 1013.4 in /  34313.7 hPa Calm     71 % 0.0 in /  0 mm 0.0 W/m2 CLR
19:58 8.3 °F /  -13.2 °C 3.6 °F /  -15.8 °C 1013.4 in /  34313.7 hPa Calm     72 % 0.0 in /  0 mm 0.0 W/m2 CLR
20:03 8.3 °F /  -13.2 °C 3.8 °F /  -15.7 °C 1013.4 in /  34313.7 hPa Calm     73 % 0.0 in /  0 mm 0.0 W/m2 CLR
20:08 8.3 °F /  -13.2 °C 3.9 °F /  -15.6 °C 1013.8 in /  34327.3 hPa Calm     74 % 0.0 in /  0 mm 0.0 W/m2 CLR
20:13 8.3 °F /  -13.2 °C 4.2 °F /  -15.4 °C 1013.8 in /  34327.3 hPa Calm     75 % 0.0 in /  0 mm 0.0 W/m2 CLR
20:18 7.8 °F /  -13.4 °C 3.8 °F /  -15.7 °C 1013.8 in /  34327.3 hPa Calm     76 % 0.0 in /  0 mm 0.0 W/m2 CLR
20:23 7.8 °F /  -13.4 °C 4.0 °F /  -15.6 °C 1013.8 in /  34327.3 hPa Calm     77 % 0.0 in /  0 mm 0.0 W/m2 CLR
20:28 7.2 °F /  -13.8 °C 3.7 °F /  -15.7 °C 1013.8 in /  34327.3 hPa Calm     78 % 0.0 in /  0 mm 0.0 W/m2 CLR
20:33 7.2 °F /  -13.8 °C 3.8 °F /  -15.7 °C 1013.8 in /  34327.3 hPa Calm     79 % 0.0 in /  0 mm 0.0 W/m2 CLR
20:38 7.2 °F /  -13.8 °C 3.8 °F /  -15.7 °C 1014.1 in /  34337.4 hPa Calm     79 % 0.0 in /  0 mm 0.0 W/m2 CLR
20:43 6.7 °F /  -14.1 °C 3.3 °F /  -15.9 °C 1014.1 in /  34337.4 hPa Calm     79 % 0.0 in /  0 mm 0.0 W/m2 CLR
20:48 6.7 °F /  -14.1 °C 3.4 °F /  -15.9 °C 1014.1 in /  34337.4 hPa Calm     80 % 0.0 in /  0 mm 0.0 W/m2 CLR
20:54 6.7 °F /  -14.1 °C 3.6 °F /  -15.8 °C 1014.1 in /  34337.4 hPa Calm     81 % 0.0 in /  0 mm 0.0 W/m2 CLR
20:59 6.7 °F /  -14.1 °C 3.6 °F /  -15.8 °C 1014.1 in /  34337.4 hPa Calm     81 % 0.0 in /  0 mm 0.0 W/m2 CLR
21:04 6.1 °F /  -14.4 °C 3.3 °F /  -15.9 °C 1014.1 in /  34337.4 hPa Calm     82 % 0.0 in /  0 mm 0.0 W/m2 CLR
21:09 6.1 °F /  -14.4 °C 3.3 °F /  -15.9 °C 1014.1 in /  34337.4 hPa Calm     82 % 0.0 in /  0 mm 0.0 W/m2 CLR
21:13 6.1 °F /  -14.4 °C 3.4 °F /  -15.9 °C 1014.1 in /  34337.4 hPa Calm     83 % 0.0 in /  0 mm 0.0 W/m2 CLR
21:19 5.6 °F /  -14.7 °C 2.9 °F /  -16.2 °C 1014.1 in /  34337.4 hPa Calm     83 % 0.0 in /  0 mm 0.0 W/m2 CLR
21:24 5.6 °F /  -14.7 °C 2.9 °F /  -16.2 °C 1014.1 in /  34337.4 hPa Calm     83 % 0.0 in /  0 mm 0.0 W/m2 CLR
21:29 5.6 °F /  -14.7 °C 2.9 °F /  -16.2 °C 1014.4 in /  34347.6 hPa Calm     83 % 0.0 in /  0 mm 0.0 W/m2 CLR
21:34 5.6 °F /  -14.7 °C 3.1 °F /  -16.1 °C 1014.4 in /  34347.6 hPa Calm     84 % 0.0 in /  0 mm 0.0 W/m2 CLR
21:39 5.6 °F /  -14.7 °C 3.1 °F /  -16.1 °C 1014.4 in /  34347.6 hPa Calm     84 % 0.0 in /  0 mm 0.0 W/m2 CLR
21:44 5.6 °F /  -14.7 °C 3.1 °F /  -16.1 °C 1014.4 in /  34347.6 hPa Calm     84 % 0.0 in /  0 mm 0.0 W/m2 CLR
21:49 5.6 °F /  -14.7 °C 3.2 °F /  -16 °C 1014.4 in /  34347.6 hPa Calm     85 % 0.0 in /  0 mm 0.0 W/m2 CLR
21:54 5.6 °F /  -14.7 °C 3.2 °F /  -16 °C 1014.4 in /  34347.6 hPa Calm     85 % 0.0 in /  0 mm 0.0 W/m2 CLR
21:59 5.0 °F /  -15 °C 2.7 °F /  -16.3 °C 1014.4 in /  34347.6 hPa Calm     85 % 0.0 in /  0 mm 0.0 W/m2 CLR
22:04 5.0 °F /  -15 °C 2.7 °F /  -16.3 °C 1014.4 in /  34347.6 hPa Calm     85 % 0.0 in /  0 mm 0.0 W/m2 CLR
22:09 5.0 °F /  -15 °C 2.7 °F /  -16.3 °C 1014.4 in /  34347.6 hPa Calm     85 % 0.0 in /  0 mm 0.0 W/m2 CLR
22:14 5.0 °F /  -15 °C 2.7 °F /  -16.3 °C 1014.4 in /  34347.6 hPa Calm     85 % 0.0 in /  0 mm 0.0 W/m2 CLR
22:19 5.0 °F /  -15 °C 2.7 °F /  -16.3 °C 1014.4 in /  34347.6 hPa Calm     85 % 0.0 in /  0 mm 0.0 W/m2 CLR
22:24 5.0 °F /  -15 °C 2.7 °F /  -16.3 °C 1014.4 in /  34347.6 hPa Calm     85 % 0.0 in /  0 mm 0.0 W/m2 CLR
22:29 5.0 °F /  -15 °C 2.7 °F /  -16.3 °C 1014.8 in /  34361.1 hPa Calm     85 % 0.0 in /  0 mm 0.0 W/m2 CLR
22:34 5.0 °F /  -15 °C 2.7 °F /  -16.3 °C 1014.8 in /  34361.1 hPa Calm     85 % 0.0 in /  0 mm 0.0 W/m2 CLR
22:39 5.0 °F /  -15 °C 2.8 °F /  -16.2 °C 1014.8 in /  34361.1 hPa Calm     86 % 0.0 in /  0 mm 0.0 W/m2 CLR
22:44 5.0 °F /  -15 °C 2.8 °F /  -16.2 °C 1014.8 in /  34361.1 hPa Calm     86 % 0.0 in /  0 mm 0.0 W/m2 CLR
22:49 4.4 °F /  -15.3 °C 2.2 °F /  -16.6 °C 1014.8 in /  34361.1 hPa Calm     85 % 0.0 in /  0 mm 0.0 W/m2 CLR
22:54 4.4 °F /  -15.3 °C 2.3 °F /  -16.5 °C 1014.8 in /  34361.1 hPa Calm     86 % 0.0 in /  0 mm 0.0 W/m2 CLR
22:59 4.4 °F /  -15.3 °C 2.4 °F /  -16.4 °C 1014.8 in /  34361.1 hPa Calm     87 % 0.0 in /  0 mm 0.0 W/m2 CLR
23:04 4.4 °F /  -15.3 °C 2.4 °F /  -16.4 °C 1014.8 in /  34361.1 hPa Calm     87 % 0.0 in /  0 mm 0.0 W/m2 CLR
23:09 4.4 °F /  -15.3 °C 2.4 °F /  -16.4 °C 1015.1 in /  34371.3 hPa Calm     87 % 0.0 in /  0 mm 0.0 W/m2 CLR
23:14 4.4 °F /  -15.3 °C 2.4 °F /  -16.4 °C 1014.8 in /  34361.1 hPa Calm     87 % 0.0 in /  0 mm 0.0 W/m2 CLR
23:19 4.4 °F /  -15.3 °C 2.4 °F /  -16.4 °C 1014.8 in /  34361.1 hPa Calm     87 % 0.0 in /  0 mm 0.0 W/m2 CLR
23:24 4.4 °F /  -15.3 °C 2.4 °F /  -16.4 °C 1014.8 in /  34361.1 hPa Calm     87 % 0.0 in /  0 mm 0.0 W/m2 CLR
23:29 4.4 °F /  -15.3 °C 2.6 °F /  -16.3 °C 1014.8 in /  34361.1 hPa Calm     88 % 0.0 in /  0 mm 0.0 W/m2 CLR
23:34 4.4 °F /  -15.3 °C 2.6 °F /  -16.3 °C 1015.1 in /  34371.3 hPa Calm     88 % 0.0 in /  0 mm 0.0 W/m2 CLR
23:39 4.4 °F /  -15.3 °C 2.6 °F /  -16.3 °C 1014.8 in /  34361.1 hPa Calm     88 % 0.0 in /  0 mm 0.0 W/m2 CLR
23:44 4.4 °F /  -15.3 °C 2.6 °F /  -16.3 °C 1014.8 in /  34361.1 hPa Calm     88 % 0.0 in /  0 mm 0.0 W/m2 CLR
23:49 4.4 °F /  -15.3 °C 2.6 °F /  -16.3 °C 1014.8 in /  34361.1 hPa Calm     88 % 0.0 in /  0 mm 0.0 W/m2 CLR
23:54 4.4 °F /  -15.3 °C 2.6 °F /  -16.3 °C 1015.1 in /  34371.3 hPa Calm     88 % 0.0 in /  0 mm 0.0 W/m2 CLR
23:59 4.4 °F /  -15.3 °C 2.8 °F /  -16.2 °C 1015.1 in /  34371.3 hPa Calm     89 % 0.0 in /  0 mm 0.0 W/m2 CLR
Lo Temps de Massalio
Compliments of Weather Underground - 1.25 mb